createdAt,value
2022-11-13T00:02:21.019Z,101832.66
2022-11-13T00:05:40.883Z,101833.50
2022-11-13T00:09:00.764Z,101834.63
2022-11-13T00:12:20.575Z,101824.78
2022-11-13T00:15:40.390Z,101824.78
2022-11-13T00:19:00.421Z,101823.03
2022-11-13T00:22:20.751Z,101819.34
2022-11-13T00:25:40.728Z,101814.78
2022-11-13T00:29:02.736Z,101815.75
2022-11-13T00:32:22.827Z,101810.47
2022-11-13T00:35:42.808Z,101809.59
2022-11-13T00:39:02.943Z,101806.00
2022-11-13T00:42:23.188Z,101810.72
2022-11-13T00:45:43.178Z,101804.41
2022-11-13T00:49:03.648Z,101792.69
2022-11-13T00:52:23.685Z,101802.69
2022-11-13T00:55:44.516Z,101799.13
2022-11-13T00:59:04.744Z,101795.66
2022-11-13T01:02:24.679Z,101802.09
2022-11-13T01:05:46.122Z,101791.25
2022-11-13T01:09:06.374Z,101800.25
2022-11-13T01:12:26.412Z,101796.78
2022-11-13T01:15:46.721Z,101791.34
2022-11-13T01:19:07.019Z,101794.06
2022-11-13T01:22:27.295Z,101785.19
2022-11-13T01:25:47.519Z,101787.03
2022-11-13T01:29:07.470Z,101779.91
2022-11-13T01:32:27.421Z,101780.88
2022-11-13T01:35:47.729Z,101771.88
2022-11-13T01:39:10.752Z,101771.03
2022-11-13T01:42:33.425Z,101778.16
2022-11-13T01:45:59.512Z,101773.75
2022-11-13T01:49:31.980Z,101780.09
2022-11-13T01:52:52.251Z,101772.97
2022-11-13T01:56:13.166Z,101775.69
2022-11-13T01:59:40.838Z,101770.25
2022-11-13T02:03:00.562Z,101769.50
2022-11-13T02:06:21.891Z,101758.91
2022-11-13T02:09:48.197Z,101763.34
2022-11-13T02:13:08.068Z,101761.75
2022-11-13T02:16:31.736Z,101758.19
2022-11-13T02:19:56.504Z,101743.88
2022-11-13T02:23:19.704Z,101747.31
2022-11-13T02:26:40.652Z,101742.63
2022-11-13T02:30:16.386Z,101747.22
2022-11-13T02:33:37.397Z,101751.03
2022-11-13T02:36:57.702Z,101741.16
2022-11-13T02:40:18.774Z,101748.59
2022-11-13T02:43:39.068Z,101745.97
2022-11-13T02:46:58.951Z,101744.28
2022-11-13T02:50:19.132Z,101740.81
2022-11-13T02:53:39.419Z,101743.53
2022-11-13T02:56:59.794Z,101747.22
2022-11-13T03:00:20.060Z,101739.22
2022-11-13T03:03:57.044Z,101741.06
2022-11-13T03:07:17.575Z,101740.34
2022-11-13T03:10:37.434Z,101730.47
2022-11-13T03:13:57.424Z,101730.47
2022-11-13T03:17:17.339Z,101735.03
2022-11-13T03:20:39.114Z,101726.88
2022-11-13T03:23:59.566Z,101733.31
2022-11-13T03:27:20.304Z,101728.84
2022-11-13T03:30:40.425Z,101731.56
2022-11-13T03:34:00.823Z,101722.72
2022-11-13T03:37:21.192Z,101721.72
2022-11-13T03:40:42.931Z,101717.41
2022-11-13T03:44:03.140Z,101713.84
2022-11-13T03:47:23.268Z,101718.41
2022-11-13T03:50:45.727Z,101712.09
2022-11-13T03:54:05.708Z,101710.38
2022-11-13T03:57:25.819Z,101699.66
2022-11-13T04:00:46.647Z,101698.81
2022-11-13T04:04:06.528Z,101697.94
2022-11-13T04:07:26.534Z,101706.94
2022-11-13T04:10:47.190Z,101698.06
2022-11-13T04:14:07.727Z,101683.66
2022-11-13T04:17:27.703Z,101687.47
2022-11-13T04:20:47.620Z,101693.75
2022-11-13T04:24:07.770Z,101685.63
2022-11-13T04:27:27.855Z,101689.31
2022-11-13T04:30:47.930Z,101691.19
2022-11-13T04:34:08.468Z,101681.31
2022-11-13T04:37:28.477Z,101683.16
2022-11-13T04:41:12.008Z,101672.19
2022-11-13T04:44:31.965Z,101677.75
2022-11-13T04:47:52.160Z,101668.75
2022-11-13T04:51:12.971Z,101670.47
2022-11-13T04:54:33.180Z,101666.03
2022-11-13T04:57:55.464Z,101664.19
2022-11-13T05:01:15.835Z,101656.06
2022-11-13T05:04:36.077Z,101652.47
2022-11-13T05:07:56.284Z,101640.91
2022-11-13T05:11:16.119Z,101640.03
2022-11-13T05:14:37.420Z,101641.75
2022-11-13T05:17:57.659Z,101640.03
2022-11-13T05:21:18.079Z,101642.00
2022-11-13T05:24:38.475Z,101647.44
2022-11-13T05:27:58.849Z,101644.72
2022-11-13T05:31:19.037Z,101634.88
2022-11-13T05:34:39.337Z,101638.44
2022-11-13T05:38:03.020Z,101624.88
2022-11-13T05:41:23.989Z,101632.16
2022-11-13T05:44:44.361Z,101633.13
2022-11-13T05:48:04.857Z,101626.00
2022-11-13T05:51:34.498Z,101619.59
2022-11-13T05:54:54.301Z,101615.28
2022-11-13T05:58:14.339Z,101617.00
2022-11-13T06:01:36.660Z,101612.56
2022-11-13T06:04:56.880Z,101623.41
2022-11-13T06:08:16.864Z,101620.00
2022-11-13T06:11:36.873Z,101613.69
2022-11-13T06:14:57.001Z,101615.53
2022-11-13T06:18:26.288Z,101620.84
2022-11-13T06:21:46.994Z,101603.84
2022-11-13T06:25:07.444Z,101602.13
2022-11-13T06:28:27.872Z,101611.22
2022-11-13T06:31:48.258Z,101602.25
2022-11-13T06:35:08.286Z,101608.53
2022-11-13T06:38:37.227Z,101612.09
2022-11-13T06:41:57.368Z,101609.53
2022-11-13T06:45:17.851Z,101610.50
2022-11-13T06:48:37.737Z,101625.78
2022-11-13T06:51:57.703Z,101628.59
2022-11-13T06:55:17.715Z,101632.19
2022-11-13T06:58:38.204Z,101623.19
2022-11-13T07:01:58.033Z,101639.59
2022-11-13T07:05:18.155Z,101636.88
2022-11-13T07:08:38.328Z,101635.28
2022-11-13T07:11:58.350Z,101638.97
2022-11-13T07:15:18.662Z,101640.72
2022-11-13T07:18:39.075Z,101635.28
2022-11-13T07:21:59.126Z,101632.56
2022-11-13T07:25:18.920Z,101633.44
2022-11-13T07:28:39.162Z,101632.56
2022-11-13T07:31:59.168Z,101634.41
2022-11-13T07:35:20.107Z,101638.00
2022-11-13T07:38:40.230Z,101629.97
2022-11-13T07:42:00.344Z,101624.56
2022-11-13T07:45:20.556Z,101630.97
2022-11-13T07:48:40.647Z,101628.97
2022-11-13T07:52:00.881Z,101624.44
2022-11-13T07:55:21.076Z,101625.91
2022-11-13T07:58:41.542Z,101627.50
2022-11-13T08:02:02.035Z,101627.25
2022-11-13T08:05:22.334Z,101622.56
2022-11-13T08:08:42.602Z,101632.44
2022-11-13T08:12:02.745Z,101621.59
2022-11-13T08:15:22.648Z,101614.31
2022-11-13T08:18:42.677Z,101615.91
2022-11-13T08:22:02.656Z,101614.03
2022-11-13T08:25:22.520Z,101612.94
2022-11-13T08:28:43.973Z,101617.22
2022-11-13T08:32:04.877Z,101615.25
2022-11-13T08:35:29.191Z,101612.41
2022-11-13T08:38:49.788Z,101627.31
2022-11-13T08:42:09.694Z,101625.19
2022-11-13T08:45:31.177Z,101617.66
2022-11-13T08:48:51.311Z,101621.00
2022-11-13T08:52:11.540Z,101619.03
2022-11-13T08:55:33.233Z,101617.00
2022-11-13T08:58:53.442Z,101617.75
2022-11-13T09:02:15.178Z,101617.47
2022-11-13T09:05:35.155Z,101617.38
2022-11-13T09:08:55.427Z,101607.53
2022-11-13T09:12:16.041Z,101611.94
2022-11-13T09:15:37.798Z,101611.81
2022-11-13T09:18:57.822Z,101609.13
2022-11-13T09:22:17.988Z,101607.25
2022-11-13T09:25:38.369Z,101608.09
2022-11-13T09:28:58.567Z,101605.41
2022-11-13T09:32:19.027Z,101608.84
2022-11-13T09:35:39.197Z,101606.88
2022-11-13T09:39:00.719Z,101611.03
2022-11-13T09:42:24.961Z,101617.09
2022-11-13T09:45:45.556Z,101613.25
2022-11-13T09:49:25.265Z,101604.84
2022-11-13T09:52:46.204Z,101607.56
2022-11-13T09:56:15.255Z,101600.28
2022-11-13T09:59:56.645Z,101591.88
2022-11-13T10:03:59.730Z,101585.47
2022-11-13T10:07:35.396Z,101581.75
2022-11-13T10:11:11.624Z,101583.22
2022-11-13T10:14:38.649Z,101574.94
2022-11-13T10:18:18.305Z,101580.09
2022-11-13T10:21:44.343Z,101573.13
2022-11-13T10:25:20.427Z,101571.03
2022-11-13T10:28:50.619Z,101567.31
2022-11-13T10:32:27.576Z,101569.75
2022-11-13T10:36:03.927Z,101564.03
2022-11-13T10:39:23.976Z,101563.19
2022-11-13T10:42:44.451Z,101562.22
2022-11-13T10:46:05.643Z,101554.91
2022-11-13T10:49:29.055Z,101553.91
2022-11-13T10:52:51.157Z,101557.47
2022-11-13T10:56:32.952Z,101559.06
2022-11-13T10:59:53.272Z,101559.94
2022-11-13T11:03:19.476Z,101560.53
2022-11-13T11:07:17.799Z,101545.94
2022-11-13T11:10:21.567Z,101548.53
2022-11-13T11:13:41.678Z,101547.41
2022-11-13T11:17:04.150Z,101540.84
2022-11-13T11:20:49.626Z,101543.28
2022-11-13T11:24:13.925Z,101534.28
2022-11-13T11:27:52.362Z,101528.00
2022-11-13T11:31:21.795Z,101524.28
2022-11-13T11:34:59.401Z,101521.72
2022-11-13T11:38:27.167Z,101523.69
2022-11-13T11:42:15.444Z,101524.69
2022-11-13T11:45:40.733Z,101515.84
2022-11-13T11:49:01.645Z,101514.81
2022-11-13T11:52:56.471Z,101514.53
2022-11-13T11:56:26.818Z,101504.53
2022-11-13T12:00:10.691Z,101511.53
2022-11-13T12:03:44.607Z,101502.53
2022-11-13T12:07:10.855Z,101497.13
2022-11-13T12:10:56.783Z,101501.56
2022-11-13T12:14:38.256Z,101498.13
2022-11-13T12:18:12.802Z,101490.09
2022-11-13T12:22:06.671Z,101485.97
2022-11-13T12:25:35.524Z,101483.31
2022-11-13T12:29:19.559Z,101482.88
2022-11-13T12:32:48.416Z,101475.13
2022-11-13T12:36:11.905Z,101466.00
2022-11-13T12:39:43.042Z,101472.41
2022-11-13T12:43:41.763Z,101482.44
2022-11-13T12:47:02.085Z,101469.97
2022-11-13T12:50:32.736Z,101473.72
2022-11-13T12:53:55.980Z,101466.53
2022-11-13T12:57:28.632Z,101471.97
2022-11-13T13:01:07.833Z,101462.13
2022-11-13T13:04:46.604Z,101468.56
2022-11-13T13:08:06.479Z,101465.13
2022-11-13T13:11:49.432Z,101463.38
2022-11-13T13:15:27.443Z,101453.66
2022-11-13T13:18:47.779Z,101457.66
2022-11-13T13:22:23.800Z,101446.63
2022-11-13T13:25:43.708Z,101449.63
2022-11-13T13:29:18.604Z,101435.22
2022-11-13T13:32:58.881Z,101439.63
2022-11-13T13:36:37.733Z,101434.19
2022-11-13T13:40:19.754Z,101432.38
2022-11-13T13:44:01.561Z,101433.34
2022-11-13T13:47:27.907Z,101423.34
2022-11-13T13:50:50.679Z,101426.06
2022-11-13T13:54:18.695Z,101426.06
2022-11-13T13:57:41.563Z,101416.22
2022-11-13T14:01:18.848Z,101424.34
2022-11-13T14:04:48.350Z,101408.94
2022-11-13T14:08:19.459Z,101407.94
2022-11-13T14:11:39.451Z,101413.38
2022-11-13T14:14:59.655Z,101413.38
2022-11-13T14:18:20.060Z,101410.66
2022-11-13T14:21:40.645Z,101406.94
2022-11-13T14:25:01.475Z,101416.09
2022-11-13T14:28:25.392Z,101408.81
2022-11-13T14:31:45.798Z,101409.94
2022-11-13T14:35:07.967Z,101406.38
2022-11-13T14:38:33.660Z,101393.78
2022-11-13T14:41:57.376Z,101392.06
2022-11-13T14:45:28.614Z,101393.47
2022-11-13T14:48:55.672Z,101385.78
2022-11-13T14:52:22.482Z,101382.72
2022-11-13T14:55:54.919Z,101380.81
2022-11-13T14:59:19.993Z,101388.53
2022-11-13T15:02:40.263Z,101386.00
2022-11-13T15:06:00.297Z,101382.63
2022-11-13T15:09:21.087Z,101380.25
2022-11-13T15:12:41.402Z,101378.81
2022-11-13T15:16:01.840Z,101381.25
2022-11-13T15:19:35.099Z,101381.75
2022-11-13T15:22:57.180Z,101375.34
2022-11-13T15:26:17.433Z,101372.34
2022-11-13T15:29:37.527Z,101358.50
2022-11-13T15:32:59.240Z,101369.06
2022-11-13T15:36:19.367Z,101368.94
2022-11-13T15:39:39.432Z,101367.94
2022-11-13T15:43:01.222Z,101367.81
2022-11-13T15:46:22.868Z,101372.22
2022-11-13T15:49:56.640Z,101369.53
2022-11-13T15:53:22.825Z,101372.09
2022-11-13T15:56:43.806Z,101358.66
2022-11-13T16:00:12.704Z,101360.25
2022-11-13T16:03:39.342Z,101361.38
2022-11-13T16:06:59.514Z,101357.53
2022-11-13T16:10:21.014Z,101351.25
2022-11-13T16:13:41.058Z,101352.09
2022-11-13T16:17:01.364Z,101341.25
2022-11-13T16:20:21.710Z,101336.69
2022-11-13T16:23:42.214Z,101335.56
2022-11-13T16:27:02.343Z,101340.84
2022-11-13T16:30:26.416Z,101336.25
2022-11-13T16:33:46.451Z,101339.97
2022-11-13T16:37:16.496Z,101335.28
2022-11-13T16:40:36.747Z,101334.25
2022-11-13T16:43:56.864Z,101326.28
2022-11-13T16:47:25.452Z,101330.69
2022-11-13T16:50:45.787Z,101330.81
2022-11-13T16:54:05.699Z,101332.84
2022-11-13T16:57:25.615Z,101321.09
2022-11-13T17:00:45.541Z,101323.97
2022-11-13T17:04:05.561Z,101306.84
2022-11-13T17:07:25.861Z,101299.56
2022-11-13T17:10:46.284Z,101295.81
2022-11-13T17:14:06.309Z,101295.81
2022-11-13T17:17:26.210Z,101303.00
2022-11-13T17:20:50.177Z,101283.84
2022-11-13T17:24:10.301Z,101288.41
2022-11-13T17:27:30.344Z,101289.25
2022-11-13T17:30:54.963Z,101294.84
2022-11-13T17:34:17.681Z,101288.28
2022-11-13T17:37:37.554Z,101284.84
2022-11-13T17:41:07.977Z,101282.69
2022-11-13T17:44:28.082Z,101289.13
2022-11-13T17:47:49.907Z,101287.16
2022-11-13T17:51:15.233Z,101294.00
2022-11-13T17:54:35.398Z,101280.41
2022-11-13T17:57:58.925Z,101293.69
2022-11-13T18:01:21.991Z,101286.44
2022-11-13T18:04:42.526Z,101280.13
2022-11-13T18:08:02.492Z,101282.84
2022-11-13T18:11:25.916Z,101280.13
2022-11-13T18:14:52.147Z,101264.97
2022-11-13T18:18:12.292Z,101270.56
2022-11-13T18:21:34.714Z,101265.13
2022-11-13T18:24:55.103Z,101265.28
2022-11-13T18:28:15.300Z,101268.84
2022-11-13T18:31:35.496Z,101267.00
2022-11-13T18:34:55.395Z,101268.56
2022-11-13T18:38:15.631Z,101267.56
2022-11-13T18:41:36.167Z,101258.56
2022-11-13T18:44:57.305Z,101260.28
2022-11-13T18:48:18.782Z,101258.56
2022-11-13T18:51:38.968Z,101250.44
2022-11-13T18:54:58.876Z,101256.56
2022-11-13T18:58:19.012Z,101261.84
2022-11-13T19:01:39.922Z,101252.56
2022-11-13T19:05:00.324Z,101247.00
2022-11-13T19:08:20.772Z,101245.13
2022-11-13T19:11:42.029Z,101235.84
2022-11-13T19:15:02.831Z,101235.72
2022-11-13T19:18:22.940Z,101234.69
2022-11-13T19:21:43.890Z,101214.84
2022-11-13T19:25:04.045Z,101209.41
2022-11-13T19:28:24.763Z,101204.13
2022-11-13T19:31:46.603Z,101198.56
2022-11-13T19:35:06.652Z,101192.13
2022-11-13T19:38:27.669Z,101187.41
2022-11-13T19:41:48.100Z,101177.25
2022-11-13T19:45:08.644Z,101177.97
2022-11-13T19:48:28.631Z,101173.22
2022-11-13T19:51:48.571Z,101176.97
2022-11-13T19:55:08.940Z,101170.69
2022-11-13T19:58:29.440Z,101159.81
2022-11-13T20:01:49.994Z,101157.09
2022-11-13T20:05:10.145Z,101151.81
2022-11-13T20:08:30.773Z,101155.38
2022-11-13T20:11:51.375Z,101147.81
2022-11-13T20:15:11.700Z,101148.53
2022-11-13T20:18:32.123Z,101145.66
2022-11-13T20:21:53.794Z,101142.50
2022-11-13T20:25:13.783Z,101139.78
2022-11-13T20:28:34.361Z,101137.91
2022-11-13T20:31:54.388Z,101128.91
2022-11-13T20:35:16.035Z,101122.63
2022-11-13T20:38:36.525Z,101130.63
2022-11-13T20:41:56.474Z,101130.47
2022-11-13T20:45:16.542Z,101121.19
2022-11-13T20:48:36.893Z,101112.91
2022-11-13T20:51:57.440Z,101111.59
2022-11-13T20:55:17.468Z,101106.72
2022-11-13T20:58:37.557Z,101105.56
2022-11-13T21:01:57.772Z,101100.16
2022-11-13T21:05:18.209Z,101097.44
2022-11-13T21:08:38.427Z,101105.72
2022-11-13T21:11:58.422Z,101095.69
2022-11-13T21:15:18.291Z,101093.84
2022-11-13T21:18:38.389Z,101086.84
2022-11-13T21:21:58.289Z,101086.44
2022-11-13T21:25:19.562Z,101084.00
2022-11-13T21:28:40.548Z,101072.31
2022-11-13T21:32:01.046Z,101067.88
2022-11-13T21:35:22.664Z,101068.72
2022-11-13T21:38:43.457Z,101050.56
2022-11-13T21:42:03.813Z,101053.28
2022-11-13T21:45:24.040Z,101050.72
2022-11-13T21:48:45.116Z,101043.56
2022-11-13T21:52:05.436Z,101047.31
2022-11-13T21:55:25.285Z,101043.88
2022-11-13T21:58:45.426Z,101039.59
2022-11-13T22:02:05.960Z,101042.31
2022-11-13T22:05:26.351Z,101047.03
2022-11-13T22:08:54.583Z,101039.91
2022-11-13T22:12:15.093Z,101033.75
2022-11-13T22:15:35.350Z,101035.75
2022-11-13T22:18:56.857Z,101035.75
2022-11-13T22:22:17.079Z,101030.63
2022-11-13T22:25:36.848Z,101027.22
2022-11-13T22:28:56.996Z,101019.06
2022-11-13T22:32:17.202Z,101019.38
2022-11-13T22:35:37.116Z,101008.66
2022-11-13T22:38:58.474Z,101007.94
2022-11-13T22:42:18.607Z,101002.66
2022-11-13T22:45:38.445Z,101000.25
2022-11-13T22:49:01.628Z,101003.09
2022-11-13T22:52:21.844Z,100994.25
2022-11-13T22:55:41.777Z,100990.81
2022-11-13T22:59:04.024Z,100991.97
2022-11-13T23:02:24.381Z,100987.69
2022-11-13T23:05:44.414Z,100990.72
2022-11-13T23:09:05.661Z,100988.16
2022-11-13T23:12:27.224Z,100987.44
2022-11-13T23:15:47.500Z,100982.31
2022-11-13T23:19:07.592Z,100977.88
2022-11-13T23:22:27.555Z,100971.75
2022-11-13T23:25:47.573Z,100976.31
2022-11-13T23:29:07.696Z,100966.78
2022-11-13T23:32:27.815Z,100961.34
2022-11-13T23:35:48.699Z,100966.06
2022-11-13T23:39:09.018Z,100965.22
2022-11-13T23:42:53.492Z,100958.06
2022-11-13T23:46:09.219Z,100954.63
2022-11-13T23:49:29.444Z,100954.94
2022-11-13T23:52:49.584Z,100955.09
2022-11-13T23:56:10.842Z,100952.38
2022-11-13T23:59:31.076Z,100953.38
